Time,TemperatureF,DewpointF,PressureIn,WindDirection,WindDirectionDegrees,WindSpeedMPH,WindSpeedGustMPH,Humidity,HourlyPrecipIn,Conditions,Clouds,dailyrainin,SoftwareType,DateUTC
2013-04-20 00:02:00,24.6,19.4,30.39,SSE,162,0.0,3.0,80,0.00,,,0.00,meteohub,2013-04-20 07:02:00,
2013-04-20 00:07:00,25.0,19.8,30.38,SSE,162,0.0,3.0,80,0.00,,,0.00,meteohub,2013-04-20 07:07:00,
2013-04-20 00:12:00,25.2,19.9,30.38,SSE,162,0.0,2.0,80,0.00,,,0.00,meteohub,2013-04-20 07:12:00,
2013-04-20 00:17:00,25.3,20.1,30.38,SSE,162,0.0,2.0,80,0.00,,,0.00,meteohub,2013-04-20 07:17:00,
2013-04-20 00:22:00,25.3,20.1,30.38,SSE,162,0.0,1.0,80,0.00,,,0.00,meteohub,2013-04-20 07:22:00,
2013-04-20 00:27:00,25.3,20.1,30.38,SSE,162,2.0,2.0,80,0.00,,,0.00,meteohub,2013-04-20 07:27:00,
2013-04-20 00:32:00,25.3,20.1,30.38,SSE,162,0.0,3.0,80,0.00,,,0.00,meteohub,2013-04-20 07:32:00,
2013-04-20 00:37:00,25.7,20.7,30.37,SSE,162,0.0,3.0,81,0.00,,,0.00,meteohub,2013-04-20 07:37:00,
2013-04-20 00:42:00,25.9,20.5,30.37,SSE,162,1.0,3.0,80,0.00,,,0.00,meteohub,2013-04-20 07:42:00,
2013-04-20 00:47:00,26.1,20.5,30.37,SSE,162,2.0,3.0,79,0.00,,,0.00,meteohub,2013-04-20 07:47:00,
2013-04-20 00:52:00,26.4,20.5,30.36,SSE,162,0.0,4.0,78,0.00,,,0.00,meteohub,2013-04-20 07:52:00,
2013-04-20 01:02:00,26.4,20.5,30.36,SSE,162,2.0,4.0,78,0.00,,,0.00,meteohub,2013-04-20 08:02:00,
2013-04-20 01:07:00,26.1,20.1,30.35,SSE,162,0.0,3.0,78,0.00,,,0.00,meteohub,2013-04-20 08:07:00,
2013-04-20 01:12:00,25.5,19.9,30.35,SSE,162,1.0,4.0,79,0.00,,,0.00,meteohub,2013-04-20 08:12:00,
2013-04-20 01:17:00,25.2,19.6,30.35,SSE,162,1.0,4.0,79,0.00,,,0.00,meteohub,2013-04-20 08:17:00,
2013-04-20 01:22:00,24.8,19.8,30.35,SSE,162,0.0,3.0,81,0.00,,,0.00,meteohub,2013-04-20 08:22:00,
2013-04-20 01:27:00,24.6,19.9,30.34,SSE,162,0.0,3.0,82,0.00,,,0.00,meteohub,2013-04-20 08:27:00,
2013-04-20 01:32:00,24.8,20.1,30.34,SSE,162,0.0,2.0,82,0.00,,,0.00,meteohub,2013-04-20 08:32:00,
2013-04-20 01:37:00,25.0,20.3,30.34,SSE,162,2.0,2.0,82,0.00,,,0.00,meteohub,2013-04-20 08:37:00,
2013-04-20 01:42:00,25.2,20.5,30.34,SSE,162,0.0,2.0,82,0.00,,,0.00,meteohub,2013-04-20 08:42:00,
2013-04-20 01:47:00,25.2,20.1,30.34,SSE,162,0.0,2.0,81,0.00,,,0.00,meteohub,2013-04-20 08:47:00,
2013-04-20 01:52:00,25.0,19.9,30.34,SSE,162,1.0,2.0,81,0.00,,,0.00,meteohub,2013-04-20 08:52:00,
2013-04-20 01:57:00,25.0,20.3,30.34,SSE,162,2.0,2.0,82,0.00,,,0.00,meteohub,2013-04-20 08:57:00,
2013-04-20 02:02:00,24.8,19.8,30.33,SSE,162,0.0,2.0,81,0.00,,,0.00,meteohub,2013-04-20 09:02:00,
2013-04-20 02:07:00,24.6,19.9,30.33,SSE,162,0.0,3.0,82,0.00,,,0.00,meteohub,2013-04-20 09:07:00,
2013-04-20 02:12:00,24.6,19.9,30.33,SSE,162,0.0,3.0,82,0.00,,,0.00,meteohub,2013-04-20 09:12:00,
2013-04-20 02:17:00,24.4,19.4,30.33,SSE,162,0.0,1.0,81,0.00,,,0.00,meteohub,2013-04-20 09:17:00,
2013-04-20 02:22:00,24.1,19.4,30.32,SSE,162,0.0,2.0,82,0.00,,,0.00,meteohub,2013-04-20 09:22:00,
2013-04-20 02:32:00,23.9,19.8,30.32,SSE,162,0.0,3.0,84,0.00,,,0.00,meteohub,2013-04-20 09:32:00,
2013-04-20 02:37:00,23.7,19.6,30.32,SSE,162,0.0,3.0,84,0.00,,,0.00,meteohub,2013-04-20 09:37:00,
2013-04-20 02:42:00,23.9,20.1,30.32,SSE,162,0.0,2.0,85,0.00,,,0.00,meteohub,2013-04-20 09:42:00,
2013-04-20 02:47:00,23.7,19.9,30.32,SSE,162,0.0,3.0,85,0.00,,,0.00,meteohub,2013-04-20 09:47:00,
2013-04-20 02:52:00,23.7,19.9,30.32,SSE,162,0.0,3.0,85,0.00,,,0.00,meteohub,2013-04-20 09:52:00,
2013-04-20 02:57:00,23.7,19.9,30.32,SSE,162,0.0,2.0,85,0.00,,,0.00,meteohub,2013-04-20 09:57:00,
2013-04-20 03:02:00,23.7,19.9,30.32,SSE,162,0.0,2.0,85,0.00,,,0.00,meteohub,2013-04-20 10:02:00,
2013-04-20 03:07:00,23.5,19.8,30.32,SSE,162,2.0,2.0,85,0.00,,,0.00,meteohub,2013-04-20 10:07:00,
2013-04-20 03:12:00,23.7,19.9,30.32,SSE,162,0.0,3.0,85,0.00,,,0.00,meteohub,2013-04-20 10:12:00,
2013-04-20 03:17:00,23.7,19.9,30.31,SSE,162,0.0,3.0,85,0.00,,,0.00,meteohub,2013-04-20 10:17:00,
2013-04-20 03:22:00,23.5,19.8,30.31,SSE,162,0.0,3.0,85,0.00,,,0.00,meteohub,2013-04-20 10:22:00,
2013-04-20 03:27:00,23.5,19.8,30.31,SSE,162,0.0,2.0,85,0.00,,,0.00,meteohub,2013-04-20 10:27:00,
2013-04-20 03:32:00,23.4,19.0,30.31,SSE,162,0.0,1.0,83,0.00,,,0.00,meteohub,2013-04-20 10:32:00,
2013-04-20 03:37:00,23.0,18.9,30.31,SSE,162,0.0,2.0,84,0.00,,,0.00,meteohub,2013-04-20 10:37:00,
2013-04-20 03:42:00,22.8,19.0,30.31,SSE,162,0.0,2.0,85,0.00,,,0.00,meteohub,2013-04-20 10:42:00,
2013-04-20 03:47:00,22.8,19.2,30.31,SSE,162,0.0,2.0,86,0.00,,,0.00,meteohub,2013-04-20 10:47:00,
2013-04-20 03:52:00,22.6,18.9,30.31,SSE,162,0.0,2.0,85,0.00,,,0.00,meteohub,2013-04-20 10:52:00,
2013-04-20 03:57:00,22.6,19.0,30.31,SSE,162,0.0,2.0,86,0.00,,,0.00,meteohub,2013-04-20 10:57:00,
2013-04-20 04:02:00,22.8,19.6,30.31,SSE,162,0.0,2.0,87,0.00,,,0.00,meteohub,2013-04-20 11:02:00,
2013-04-20 04:07:00,23.0,19.4,30.31,SSE,162,0.0,2.0,86,0.00,,,0.00,meteohub,2013-04-20 11:07:00,
2013-04-20 04:12:00,23.0,19.4,30.31,SSE,162,0.0,3.0,86,0.00,,,0.00,meteohub,2013-04-20 11:12:00,
2013-04-20 04:17:00,23.2,19.6,30.31,SSE,162,0.0,3.0,86,0.00,,,0.00,meteohub,2013-04-20 11:17:00,
2013-04-20 04:22:00,23.4,19.8,30.31,SSE,162,0.0,3.0,86,0.00,,,0.00,meteohub,2013-04-20 11:22:00,
2013-04-20 04:27:00,23.4,19.8,30.31,SSE,162,0.0,1.0,86,0.00,,,0.00,meteohub,2013-04-20 11:27:00,
2013-04-20 04:32:00,23.5,19.9,30.30,SSE,162,0.0,1.0,86,0.00,,,0.00,meteohub,2013-04-20 11:32:00,
2013-04-20 04:37:00,23.5,19.9,30.30,SSE,162,0.0,0.0,86,0.00,,,0.00,meteohub,2013-04-20 11:37:00,
2013-04-20 04:42:00,23.9,20.7,30.30,SSE,162,0.0,0.0,87,0.00,,,0.00,meteohub,2013-04-20 11:42:00,
2013-04-20 04:47:00,24.1,20.8,30.30,SSE,162,1.0,1.0,87,0.00,,,0.00,meteohub,2013-04-20 11:47:00,
2013-04-20 04:52:00,24.4,21.2,30.30,SSE,162,0.0,3.0,87,0.00,,,0.00,meteohub,2013-04-20 11:52:00,
2013-04-20 04:57:00,24.6,21.0,30.30,SSE,162,0.0,3.0,86,0.00,,,0.00,meteohub,2013-04-20 11:57:00,
2013-04-20 05:02:00,25.0,21.2,30.30,SSE,162,0.0,3.0,85,0.00,,,0.00,meteohub,2013-04-20 12:02:00,
2013-04-20 05:07:00,25.2,21.0,30.29,SSE,162,0.0,3.0,84,0.00,,,0.00,meteohub,2013-04-20 12:07:00,
2013-04-20 05:12:00,25.3,21.2,30.29,SSE,162,0.0,2.0,84,0.00,,,0.00,meteohub,2013-04-20 12:12:00,
2013-04-20 05:17:00,25.3,20.8,30.29,SSE,162,0.0,2.0,83,0.00,,,0.00,meteohub,2013-04-20 12:17:00,
2013-04-20 05:22:00,25.5,21.4,30.29,SSE,162,0.0,2.0,84,0.00,,,0.00,meteohub,2013-04-20 12:22:00,
2013-04-20 05:27:00,25.9,21.7,30.29,SSE,162,0.0,2.0,84,0.00,,,0.00,meteohub,2013-04-20 12:27:00,
2013-04-20 05:32:00,25.9,21.7,30.29,SSE,162,0.0,2.0,84,0.00,,,0.00,meteohub,2013-04-20 12:32:00,
2013-04-20 05:37:00,25.9,21.7,30.29,SSE,162,0.0,2.0,84,0.00,,,0.00,meteohub,2013-04-20 12:37:00,
2013-04-20 05:42:00,25.7,21.6,30.29,SSE,162,0.0,2.0,84,0.00,,,0.00,meteohub,2013-04-20 12:42:00,
2013-04-20 05:47:00,25.5,21.6,30.29,WNW,298,3.0,3.0,85,0.00,,,0.00,meteohub,2013-04-20 12:47:00,
2013-04-20 05:52:00,25.3,21.7,30.29,NW,306,1.0,3.0,86,0.00,,,0.00,meteohub,2013-04-20 12:52:00,
2013-04-20 05:57:00,25.3,21.7,30.29,NW,311,2.0,3.0,86,0.00,,,0.00,meteohub,2013-04-20 12:57:00,
2013-04-20 06:02:00,25.3,21.4,30.29,NW,311,0.0,4.0,85,0.00,,,0.00,meteohub,2013-04-20 13:02:00,
2013-04-20 06:07:00,25.5,21.9,30.29,NW,311,2.0,4.0,86,0.00,,,0.00,meteohub,2013-04-20 13:07:00,
2013-04-20 06:12:00,25.9,21.9,30.29,NW,311,1.0,3.0,85,0.00,,,0.00,meteohub,2013-04-20 13:12:00,
2013-04-20 06:17:00,26.1,22.5,30.29,NW,311,0.0,3.0,86,0.00,,,0.00,meteohub,2013-04-20 13:17:00,
2013-04-20 06:22:00,26.2,22.3,30.29,NW,311,0.0,3.0,85,0.00,,,0.00,meteohub,2013-04-20 13:22:00,
2013-04-20 06:32:00,27.0,22.5,30.29,NW,311,0.0,2.0,83,0.00,,,0.00,meteohub,2013-04-20 13:32:00,
2013-04-20 06:37:00,27.1,22.5,30.29,NW,311,0.0,2.0,82,0.00,,,0.00,meteohub,2013-04-20 13:37:00,
2013-04-20 06:42:00,27.5,22.5,30.29,NW,311,0.0,2.0,81,0.00,,,0.00,meteohub,2013-04-20 13:42:00,
2013-04-20 06:47:00,27.9,23.0,30.29,NW,311,0.0,2.0,82,0.00,,,0.00,meteohub,2013-04-20 13:47:00,
2013-04-20 06:52:00,27.9,22.8,30.29,NW,311,0.0,1.0,81,0.00,,,0.00,meteohub,2013-04-20 13:52:00,
2013-04-20 06:57:00,27.9,22.8,30.29,NW,311,0.0,1.0,81,0.00,,,0.00,meteohub,2013-04-20 13:57:00,
2013-04-20 07:02:00,27.9,23.0,30.29,NW,311,0.0,1.0,82,0.00,,,0.00,meteohub,2013-04-20 14:02:00,
2013-04-20 07:07:00,27.9,23.7,30.29,NW,311,0.0,1.0,84,0.00,,,0.00,meteohub,2013-04-20 14:07:00,
2013-04-20 07:12:00,27.9,23.9,30.28,NW,311,1.0,1.0,85,0.00,,,0.00,meteohub,2013-04-20 14:12:00,
2013-04-20 07:17:00,28.0,24.1,30.28,NW,311,0.0,1.0,85,0.00,,,0.00,meteohub,2013-04-20 14:17:00,
2013-04-20 07:22:00,28.6,24.6,30.28,NW,311,0.0,1.0,85,0.00,,,0.00,meteohub,2013-04-20 14:22:00,
2013-04-20 07:27:00,29.5,25.0,30.27,NW,311,1.0,1.0,83,0.00,,,0.00,meteohub,2013-04-20 14:27:00,
2013-04-20 07:32:00,29.7,24.6,30.27,NW,311,0.0,1.0,81,0.00,,,0.00,meteohub,2013-04-20 14:32:00,
2013-04-20 07:37:00,29.8,24.4,30.27,NW,311,0.0,1.0,80,0.00,,,0.00,meteohub,2013-04-20 14:37:00,
2013-04-20 07:42:00,30.4,25.0,30.27,NW,311,0.0,2.0,80,0.00,,,0.00,meteohub,2013-04-20 14:42:00,
2013-04-20 07:47:00,30.9,24.8,30.27,NW,311,0.0,2.0,78,0.00,,,0.00,meteohub,2013-04-20 14:47:00,
2013-04-20 07:52:00,31.1,24.8,30.26,NW,311,0.0,1.0,77,0.00,,,0.00,meteohub,2013-04-20 14:52:00,
2013-04-20 07:57:00,31.3,25.2,30.26,NW,311,0.0,2.0,78,0.00,,,0.00,meteohub,2013-04-20 14:57:00,
2013-04-20 08:02:00,31.6,25.3,30.26,NW,310,0.0,2.0,77,0.00,,,0.00,meteohub,2013-04-20 15:02:00,
2013-04-20 08:07:00,32.2,25.5,30.25,NW,310,0.0,3.0,76,0.00,,,0.00,meteohub,2013-04-20 15:07:00,
2013-04-20 08:12:00,32.9,25.9,30.25,NW,310,0.0,3.0,75,0.00,,,0.00,meteohub,2013-04-20 15:12:00,
2013-04-20 08:17:00,33.4,26.1,30.25,NW,310,1.0,3.0,74,0.00,,,0.00,meteohub,2013-04-20 15:17:00,
2013-04-20 08:22:00,33.3,25.5,30.25,NW,310,1.0,3.0,73,0.00,,,0.00,meteohub,2013-04-20 15:22:00,
2013-04-20 08:27:00,33.1,25.7,30.25,NW,310,1.0,4.0,74,0.00,,,0.00,meteohub,2013-04-20 15:27:00,
2013-04-20 08:37:00,33.1,25.7,30.25,NW,310,2.0,4.0,74,0.00,,,0.00,meteohub,2013-04-20 15:37:00,
2013-04-20 08:42:00,33.4,26.4,30.25,WNW,298,3.0,4.0,75,0.00,,,0.00,meteohub,2013-04-20 15:42:00,
2013-04-20 08:47:00,34.0,25.9,30.25,NW,306,1.0,4.0,72,0.00,,,0.00,meteohub,2013-04-20 15:47:00,
2013-04-20 08:52:00,34.5,26.4,30.24,WNW,283,3.0,5.0,72,0.00,,,0.00,meteohub,2013-04-20 15:52:00,
2013-04-20 08:57:00,35.2,26.1,30.25,NW,315,3.0,6.0,69,0.00,,,0.00,meteohub,2013-04-20 15:57:00,
2013-04-20 09:02:00,36.1,27.0,30.25,WNW,300,4.0,6.0,69,0.00,,,0.00,meteohub,2013-04-20 16:02:00,
2013-04-20 09:12:00,36.3,25.3,30.25,NW,311,1.0,5.0,64,0.00,,,0.00,meteohub,2013-04-20 16:12:00,
2013-04-20 09:17:00,36.7,25.7,30.25,NW,311,0.0,5.0,64,0.00,,,0.00,meteohub,2013-04-20 16:17:00,
2013-04-20 09:22:00,36.7,25.7,30.25,NW,324,2.0,4.0,64,0.00,,,0.00,meteohub,2013-04-20 16:22:00,
2013-04-20 09:32:00,37.6,26.6,30.24,NE,40,2.0,4.0,64,0.00,,,0.00,meteohub,2013-04-20 16:32:00,
2013-04-20 09:37:00,37.8,25.9,30.24,East,100,1.0,3.0,62,0.00,,,0.00,meteohub,2013-04-20 16:37:00,
2013-04-20 09:42:00,38.5,26.6,30.24,WNW,291,1.0,5.0,62,0.00,,,0.00,meteohub,2013-04-20 16:42:00,
2013-04-20 09:47:00,39.0,25.9,30.24,NNE,14,4.0,8.0,59,0.00,,,0.00,meteohub,2013-04-20 16:47:00,
2013-04-20 09:52:00,39.2,26.4,30.24,NW,318,7.0,8.0,60,0.00,,,0.00,meteohub,2013-04-20 16:52:00,
2013-04-20 09:57:00,39.6,25.5,30.24,WNW,303,3.0,10.0,57,0.00,,,0.00,meteohub,2013-04-20 16:57:00,
2013-04-20 10:02:00,39.4,25.9,30.23,NW,319,7.0,10.0,58,0.00,,,0.00,meteohub,2013-04-20 17:02:00,
2013-04-20 10:07:00,39.4,26.2,30.23,NW,317,8.0,11.0,59,0.00,,,0.00,meteohub,2013-04-20 17:07:00,
2013-04-20 10:12:00,39.2,25.2,30.23,NW,321,5.0,12.0,57,0.00,,,0.00,meteohub,2013-04-20 17:12:00,
2013-04-20 10:17:00,39.7,25.7,30.23,NW,315,7.0,12.0,57,0.00,,,0.00,meteohub,2013-04-20 17:17:00,
2013-04-20 10:22:00,39.9,24.6,30.23,NE,47,6.0,11.0,54,0.00,,,0.00,meteohub,2013-04-20 17:22:00,
2013-04-20 10:27:00,40.3,25.0,30.22,NW,321,7.0,12.0,54,0.00,,,0.00,meteohub,2013-04-20 17:27:00,
2013-04-20 10:32:00,41.0,26.1,30.22,NW,306,15.0,15.0,55,0.00,,,0.00,meteohub,2013-04-20 17:32:00,
2013-04-20 10:37:00,41.4,25.9,30.22,NW,319,10.0,17.0,54,0.00,,,0.00,meteohub,2013-04-20 17:37:00,
2013-04-20 10:42:00,41.5,26.1,30.22,NNW,346,4.0,17.0,54,0.00,,,0.00,meteohub,2013-04-20 17:42:00,
2013-04-20 10:47:00,40.6,26.6,30.22,WNW,290,7.0,17.0,57,0.00,,,0.00,meteohub,2013-04-20 17:47:00,
2013-04-20 10:52:00,40.6,25.7,30.22,NW,316,2.0,15.0,55,0.00,,,0.00,meteohub,2013-04-20 17:52:00,
2013-04-20 10:57:00,40.5,25.5,30.22,North,355,3.0,15.0,55,0.00,,,0.00,meteohub,2013-04-20 17:57:00,
2013-04-20 11:02:00,40.6,26.6,30.22,NNW,348,3.0,15.0,57,0.00,,,0.00,meteohub,2013-04-20 18:02:00,
2013-04-20 11:07:00,41.0,25.7,30.22,North,5,4.0,10.0,54,0.00,,,0.00,meteohub,2013-04-20 18:07:00,
2013-04-20 11:12:00,40.6,26.2,30.21,North,5,7.0,10.0,56,0.00,,,0.00,meteohub,2013-04-20 18:12:00,
2013-04-20 11:17:00,40.8,26.8,30.21,NE,37,5.0,16.0,57,0.00,,,0.00,meteohub,2013-04-20 18:17:00,
2013-04-20 11:22:00,41.4,25.9,30.21,NNE,20,4.0,16.0,54,0.00,,,0.00,meteohub,2013-04-20 18:22:00,
2013-04-20 11:27:00,41.5,26.1,30.21,NW,314,12.0,14.0,54,0.00,,,0.00,meteohub,2013-04-20 18:27:00,
2013-04-20 11:32:00,42.1,26.6,30.21,NNW,341,14.0,18.0,54,0.00,,,0.00,meteohub,2013-04-20 18:32:00,
2013-04-20 11:37:00,41.4,25.0,30.21,NW,308,8.0,19.0,52,0.00,,,0.00,meteohub,2013-04-20 18:37:00,
2013-04-20 11:42:00,41.2,25.3,30.21,NW,315,7.0,19.0,53,0.00,,,0.00,meteohub,2013-04-20 18:42:00,
2013-04-20 11:47:00,40.6,25.3,30.21,WNW,303,7.0,19.0,54,0.00,,,0.00,meteohub,2013-04-20 18:47:00,
2013-04-20 11:52:00,40.8,25.9,30.21,NW,319,2.0,15.0,55,0.00,,,0.00,meteohub,2013-04-20 18:52:00,
2013-04-20 11:57:00,41.5,27.0,30.20,NW,323,4.0,15.0,56,0.00,,,0.00,meteohub,2013-04-20 18:57:00,
2013-04-20 12:02:00,41.7,25.9,30.20,NW,318,7.0,15.0,53,0.00,,,0.00,meteohub,2013-04-20 19:02:00,
2013-04-20 12:07:00,42.6,26.6,30.20,NNE,31,4.0,13.0,53,0.00,,,0.00,meteohub,2013-04-20 19:07:00,
2013-04-20 12:12:00,43.5,26.6,30.19,NW,321,7.0,13.0,51,0.00,,,0.00,meteohub,2013-04-20 19:12:00,
2013-04-20 12:17:00,43.3,25.9,30.19,NW,306,8.0,14.0,50,0.00,,,0.00,meteohub,2013-04-20 19:17:00,
2013-04-20 12:22:00,42.4,25.5,30.19,West,275,4.0,14.0,51,0.00,,,0.00,meteohub,2013-04-20 19:22:00,
2013-04-20 12:27:00,42.1,24.8,30.19,ENE,57,1.0,15.0,50,0.00,,,0.00,meteohub,2013-04-20 19:27:00,
2013-04-20 12:32:00,41.7,23.9,30.20,NW,304,9.0,15.0,49,0.00,,,0.00,meteohub,2013-04-20 19:32:00,
2013-04-20 12:37:00,41.5,25.2,30.19,NW,310,10.0,17.0,52,0.00,,,0.00,meteohub,2013-04-20 19:37:00,
2013-04-20 12:42:00,42.1,25.7,30.19,NW,309,10.0,17.0,52,0.00,,,0.00,meteohub,2013-04-20 19:42:00,
2013-04-20 12:47:00,42.4,26.6,30.19,NNW,327,10.0,17.0,53,0.00,,,0.00,meteohub,2013-04-20 19:47:00,
2013-04-20 12:52:00,42.6,28.9,30.20,ENE,63,7.0,15.0,58,0.00,,,0.00,meteohub,2013-04-20 19:52:00,
2013-04-20 12:57:00,42.4,27.5,30.20,NW,311,2.0,18.0,55,0.00,,,0.00,meteohub,2013-04-20 19:57:00,
2013-04-20 13:02:00,42.1,27.9,30.20,NE,44,3.0,18.0,57,0.00,,,0.00,meteohub,2013-04-20 20:02:00,
2013-04-20 13:07:00,42.1,27.1,30.20,North,9,1.0,15.0,55,0.00,,,0.00,meteohub,2013-04-20 20:07:00,
2013-04-20 13:12:00,41.9,26.4,30.20,NE,44,3.0,13.0,54,0.00,,,0.00,meteohub,2013-04-20 20:12:00,
2013-04-20 13:22:00,42.3,25.9,30.19,NNE,14,6.0,13.0,52,0.00,,,0.00,meteohub,2013-04-20 20:22:00,
2013-04-20 13:27:00,42.4,26.1,30.19,NNE,19,3.0,13.0,52,0.00,,,0.00,meteohub,2013-04-20 20:27:00,
2013-04-20 13:37:00,42.6,26.6,30.19,NW,314,6.0,13.0,53,0.00,,,0.00,meteohub,2013-04-20 20:37:00,
2013-04-20 13:42:00,44.1,28.0,30.19,North,10,6.0,13.0,53,0.00,,,0.00,meteohub,2013-04-20 20:42:00,
2013-04-20 13:52:00,44.4,25.5,30.19,NW,320,6.0,13.0,47,0.00,,,0.00,meteohub,2013-04-20 20:52:00,
2013-04-20 13:57:00,43.9,25.5,30.19,NW,315,8.0,13.0,48,0.00,,,0.00,meteohub,2013-04-20 20:57:00,
2013-04-20 14:02:00,44.2,26.8,30.19,North,5,2.0,12.0,50,0.00,,,0.00,meteohub,2013-04-20 21:02:00,
2013-04-20 14:07:00,44.8,25.7,30.18,West,270,4.0,13.0,47,0.00,,,0.00,meteohub,2013-04-20 21:07:00,
2013-04-20 14:12:00,44.1,23.5,30.18,NW,304,8.0,13.0,44,0.00,,,0.00,meteohub,2013-04-20 21:12:00,
2013-04-20 14:17:00,44.8,24.8,30.18,NW,321,5.0,17.0,45,0.00,,,0.00,meteohub,2013-04-20 21:17:00,
2013-04-20 14:22:00,45.0,24.4,30.19,NW,319,6.0,17.0,44,0.00,,,0.00,meteohub,2013-04-20 21:22:00,
2013-04-20 14:27:00,45.7,25.0,30.18,NW,318,10.0,17.0,44,0.00,,,0.00,meteohub,2013-04-20 21:27:00,
2013-04-20 14:32:00,46.6,25.9,30.18,NNW,335,10.0,16.0,44,0.00,,,0.00,meteohub,2013-04-20 21:32:00,
2013-04-20 14:37:00,46.8,24.8,30.18,NW,315,10.0,16.0,42,0.00,,,0.00,meteohub,2013-04-20 21:37:00,
2013-04-20 14:42:00,47.1,26.8,30.18,NW,317,15.0,16.0,45,0.00,,,0.00,meteohub,2013-04-20 21:42:00,
2013-04-20 14:47:00,45.7,26.1,30.19,NE,42,5.0,16.0,46,0.00,,,0.00,meteohub,2013-04-20 21:47:00,
2013-04-20 14:52:00,45.0,25.9,30.19,NW,317,7.0,15.0,47,0.00,,,0.00,meteohub,2013-04-20 21:52:00,
2013-04-20 14:57:00,45.1,25.5,30.19,WNW,299,8.0,18.0,46,0.00,,,0.00,meteohub,2013-04-20 21:57:00,
2013-04-20 15:02:00,45.0,24.4,30.19,NW,314,14.0,18.0,44,0.00,,,0.00,meteohub,2013-04-20 22:02:00,
2013-04-20 15:07:00,44.4,22.1,30.19,North,5,9.0,18.0,41,0.00,,,0.00,meteohub,2013-04-20 22:07:00,
2013-04-20 15:12:00,44.1,20.7,30.19,East,87,8.0,16.0,39,0.00,,,0.00,meteohub,2013-04-20 22:12:00,
2013-04-20 15:17:00,43.3,23.4,30.19,NW,308,8.0,16.0,45,0.00,,,0.00,meteohub,2013-04-20 22:17:00,
2013-04-20 15:22:00,43.5,24.6,30.19,North,355,9.0,16.0,47,0.00,,,0.00,meteohub,2013-04-20 22:22:00,
2013-04-20 15:27:00,44.4,25.5,30.19,NW,309,3.0,16.0,47,0.00,,,0.00,meteohub,2013-04-20 22:27:00,
2013-04-20 15:32:00,44.8,25.3,30.19,NE,36,3.0,14.0,46,0.00,,,0.00,meteohub,2013-04-20 22:32:00,
2013-04-20 15:37:00,45.0,25.3,30.19,North,5,10.0,14.0,46,0.00,,,0.00,meteohub,2013-04-20 22:37:00,
2013-04-20 15:42:00,44.2,24.8,30.19,ENE,59,8.0,14.0,46,0.00,,,0.00,meteohub,2013-04-20 22:42:00,
2013-04-20 15:47:00,44.4,24.4,30.19,NNW,346,6.0,12.0,45,0.00,,,0.00,meteohub,2013-04-20 22:47:00,
2013-04-20 15:52:00,45.0,25.3,30.19,WNW,295,10.0,14.0,46,0.00,,,0.00,meteohub,2013-04-20 22:52:00,
2013-04-20 15:57:00,44.2,24.3,30.19,North,355,6.0,15.0,45,0.00,,,0.00,meteohub,2013-04-20 22:57:00,
2013-04-20 16:02:00,43.9,25.5,30.19,NNW,346,12.0,17.0,48,0.00,,,0.00,meteohub,2013-04-20 23:02:00,
2013-04-20 16:07:00,44.6,25.7,30.19,NNE,12,9.0,17.0,47,0.00,,,0.00,meteohub,2013-04-20 23:07:00,
2013-04-20 16:12:00,44.4,25.0,30.20,WNW,290,4.0,15.0,46,0.00,,,0.00,meteohub,2013-04-20 23:12:00,
2013-04-20 16:17:00,43.9,25.5,30.20,NNW,338,4.0,15.0,48,0.00,,,0.00,meteohub,2013-04-20 23:17:00,
2013-04-20 16:22:00,43.3,25.5,30.20,NW,317,6.0,15.0,49,0.00,,,0.00,meteohub,2013-04-20 23:22:00,
2013-04-20 16:27:00,42.8,26.8,30.21,North,355,4.0,15.0,53,0.00,,,0.00,meteohub,2013-04-20 23:27:00,
2013-04-20 16:32:00,42.6,26.6,30.21,NE,43,7.0,16.0,53,0.00,,,0.00,meteohub,2013-04-20 23:32:00,
2013-04-20 16:37:00,43.2,25.7,30.22,North,0,9.0,16.0,50,0.00,,,0.00,meteohub,2013-04-20 23:37:00,
2013-04-20 16:42:00,42.6,25.3,30.21,NNW,327,6.0,16.0,50,0.00,,,0.00,meteohub,2013-04-20 23:42:00,
2013-04-20 16:47:00,42.4,24.6,30.22,West,269,4.0,16.0,49,0.00,,,0.00,meteohub,2013-04-20 23:47:00,
2013-04-20 16:57:00,42.6,25.7,30.22,North,5,8.0,16.0,51,0.00,,,0.00,meteohub,2013-04-20 23:57:00,
2013-04-20 17:02:00,42.4,27.0,30.22,NW,319,7.0,16.0,54,0.00,,,0.00,meteohub,2013-04-21 00:02:00,
2013-04-20 17:07:00,43.0,27.5,30.22,NNE,20,4.0,16.0,54,0.00,,,0.00,meteohub,2013-04-21 00:07:00,
2013-04-20 17:12:00,43.0,27.5,30.22,NW,311,5.0,11.0,54,0.00,,,0.00,meteohub,2013-04-21 00:12:00,
2013-04-20 17:17:00,42.8,26.8,30.22,NW,306,7.0,12.0,53,0.00,,,0.00,meteohub,2013-04-21 00:17:00,
2013-04-20 17:22:00,43.0,26.6,30.22,WNW,294,11.0,14.0,52,0.00,,,0.00,meteohub,2013-04-21 00:22:00,
2013-04-20 17:27:00,42.1,25.3,30.22,NW,304,10.0,15.0,51,0.00,,,0.00,meteohub,2013-04-21 00:27:00,
2013-04-20 17:32:00,41.7,26.8,30.22,NW,324,8.0,15.0,55,0.00,,,0.00,meteohub,2013-04-21 00:32:00,
2013-04-20 17:37:00,41.9,26.1,30.23,WNW,294,8.0,15.0,53,0.00,,,0.00,meteohub,2013-04-21 00:37:00,
2013-04-20 17:42:00,42.3,26.4,30.23,NNW,333,6.0,15.0,53,0.00,,,0.00,meteohub,2013-04-21 00:42:00,
2013-04-20 17:47:00,42.3,25.9,30.24,WNW,302,10.0,15.0,52,0.00,,,0.00,meteohub,2013-04-21 00:47:00,
2013-04-20 17:52:00,42.1,24.8,30.24,NW,309,9.0,15.0,50,0.00,,,0.00,meteohub,2013-04-21 00:52:00,
2013-04-20 17:57:00,41.7,25.0,30.24,WNW,294,10.0,15.0,51,0.00,,,0.00,meteohub,2013-04-21 00:57:00,
2013-04-20 18:02:00,41.5,25.2,30.25,WNW,294,5.0,14.0,52,0.00,,,0.00,meteohub,2013-04-21 01:02:00,
2013-04-20 18:07:00,41.4,25.9,30.25,WNW,286,6.0,12.0,54,0.00,,,0.00,meteohub,2013-04-21 01:07:00,
2013-04-20 18:12:00,41.4,25.9,30.25,NW,325,4.0,15.0,54,0.00,,,0.00,meteohub,2013-04-21 01:12:00,
2013-04-20 18:17:00,40.8,25.9,30.25,NW,323,3.0,15.0,55,0.00,,,0.00,meteohub,2013-04-21 01:17:00,
2013-04-20 18:22:00,40.6,25.7,30.25,WNW,297,6.0,10.0,55,0.00,,,0.00,meteohub,2013-04-21 01:22:00,
2013-04-20 18:27:00,40.1,25.7,30.25,NNW,338,3.0,10.0,56,0.00,,,0.00,meteohub,2013-04-21 01:27:00,
2013-04-20 18:32:00,39.9,25.9,30.25,NW,322,5.0,9.0,57,0.00,,,0.00,meteohub,2013-04-21 01:32:00,
2013-04-20 18:37:00,39.6,26.1,30.25,NNW,342,2.0,10.0,58,0.00,,,0.00,meteohub,2013-04-21 01:37:00,
2013-04-20 18:42:00,39.4,26.2,30.26,NW,319,2.0,10.0,59,0.00,,,0.00,meteohub,2013-04-21 01:42:00,
2013-04-20 18:47:00,39.2,26.1,30.26,NW,317,2.0,10.0,59,0.00,,,0.00,meteohub,2013-04-21 01:47:00,
2013-04-20 18:52:00,39.0,26.2,30.26,NW,319,1.0,5.0,60,0.00,,,0.00,meteohub,2013-04-21 01:52:00,
2013-04-20 18:57:00,39.0,26.2,30.27,NNW,327,0.0,6.0,60,0.00,,,0.00,meteohub,2013-04-21 01:57:00,
2013-04-20 19:02:00,39.0,25.9,30.27,North,0,5.0,6.0,59,0.00,,,0.00,meteohub,2013-04-21 02:02:00,
2013-04-20 19:07:00,39.0,25.9,30.27,North,9,3.0,5.0,59,0.00,,,0.00,meteohub,2013-04-21 02:07:00,
2013-04-20 19:12:00,38.8,25.7,30.27,NNW,342,0.0,7.0,59,0.00,,,0.00,meteohub,2013-04-21 02:12:00,
2013-04-20 19:17:00,38.7,26.8,30.27,ENE,65,5.0,7.0,62,0.00,,,0.00,meteohub,2013-04-21 02:17:00,
2013-04-20 19:22:00,38.3,27.1,30.27,NE,51,4.0,7.0,64,0.00,,,0.00,meteohub,2013-04-21 02:22:00,
2013-04-20 19:27:00,37.9,26.8,30.27,NE,48,4.0,6.0,64,0.00,,,0.00,meteohub,2013-04-21 02:27:00,
2013-04-20 19:32:00,37.9,26.8,30.28,NE,49,0.0,6.0,64,0.00,,,0.00,meteohub,2013-04-21 02:32:00,
2013-04-20 19:37:00,37.9,26.8,30.28,NE,49,2.0,6.0,64,0.00,,,0.00,meteohub,2013-04-21 02:37:00,
2013-04-20 19:42:00,37.9,26.8,30.28,NE,49,2.0,5.0,64,0.00,,,0.00,meteohub,2013-04-21 02:42:00,
2013-04-20 19:47:00,37.9,26.4,30.29,NNW,344,1.0,3.0,63,0.00,,,0.00,meteohub,2013-04-21 02:47:00,
2013-04-20 19:52:00,37.9,26.4,30.29,NNE,32,0.0,4.0,63,0.00,,,0.00,meteohub,2013-04-21 02:52:00,
2013-04-20 19:57:00,37.9,26.4,30.29,NE,47,5.0,5.0,63,0.00,,,0.00,meteohub,2013-04-21 02:57:00,
2013-04-20 20:02:00,37.9,26.8,30.29,NNW,331,4.0,7.0,64,0.00,,,0.00,meteohub,2013-04-21 03:02:00,
2013-04-20 20:07:00,37.6,27.0,30.30,North,5,3.0,8.0,65,0.00,,,0.00,meteohub,2013-04-21 03:07:00,
2013-04-20 20:12:00,37.2,28.4,30.30,WNW,284,3.0,8.0,70,0.00,,,0.00,meteohub,2013-04-21 03:12:00,
2013-04-20 20:17:00,36.1,28.4,30.31,NW,325,6.0,8.0,73,0.00,,,0.00,meteohub,2013-04-21 03:17:00,
2013-04-20 20:22:00,35.8,28.6,30.31,WNW,302,4.0,8.0,75,0.00,,,0.00,meteohub,2013-04-21 03:22:00,
2013-04-20 20:27:00,35.6,28.8,30.32,NW,304,2.0,8.0,76,0.00,,,0.00,meteohub,2013-04-21 03:27:00,
2013-04-20 20:32:00,35.4,28.6,30.32,West,259,2.0,8.0,76,0.00,,,0.00,meteohub,2013-04-21 03:32:00,
2013-04-20 20:37:00,35.4,28.9,30.32,West,279,0.0,8.0,77,0.00,,,0.00,meteohub,2013-04-21 03:37:00,
2013-04-20 20:42:00,35.2,29.1,30.32,West,279,0.0,6.0,78,0.00,,,0.00,meteohub,2013-04-21 03:42:00,
2013-04-20 20:47:00,35.2,29.3,30.32,West,279,0.0,5.0,79,0.00,,,0.00,meteohub,2013-04-21 03:47:00,
2013-04-20 20:52:00,35.1,29.1,30.32,West,279,0.0,1.0,79,0.00,,,0.00,meteohub,2013-04-21 03:52:00,
2013-04-20 21:02:00,34.9,29.3,30.32,West,275,0.0,1.0,80,0.00,,,0.00,meteohub,2013-04-21 04:02:00,
2013-04-20 21:07:00,34.9,29.7,30.33,West,275,0.0,1.0,81,0.00,,,0.00,meteohub,2013-04-21 04:07:00,
2013-04-20 21:12:00,34.9,29.3,30.32,NW,315,1.0,2.0,80,0.00,,,0.00,meteohub,2013-04-21 04:12:00,
2013-04-20 21:17:00,34.7,29.8,30.32,NW,315,0.0,4.0,82,0.00,,,0.00,meteohub,2013-04-21 04:17:00,
2013-04-20 21:22:00,34.3,29.7,30.32,NW,315,1.0,4.0,83,0.00,,,0.00,meteohub,2013-04-21 04:22:00,
2013-04-20 21:27:00,34.2,29.5,30.32,NW,315,0.0,4.0,83,0.00,,,0.00,meteohub,2013-04-21 04:27:00,
2013-04-20 21:32:00,34.0,29.3,30.32,NW,315,0.0,2.0,83,0.00,,,0.00,meteohub,2013-04-21 04:32:00,
2013-04-20 21:37:00,34.0,29.7,30.32,NE,43,2.0,2.0,84,0.00,,,0.00,meteohub,2013-04-21 04:37:00,
2013-04-20 21:42:00,34.2,29.5,30.32,NE,44,0.0,3.0,83,0.00,,,0.00,meteohub,2013-04-21 04:42:00,
2013-04-20 21:47:00,34.2,29.5,30.32,NE,44,0.0,3.0,83,0.00,,,0.00,meteohub,2013-04-21 04:47:00,
2013-04-20 21:52:00,34.2,29.5,30.32,NE,44,0.0,3.0,83,0.00,,,0.00,meteohub,2013-04-21 04:52:00,
2013-04-20 21:57:00,34.0,29.7,30.32,NE,45,0.0,2.0,84,0.00,,,0.00,meteohub,2013-04-21 04:57:00,
2013-04-20 22:02:00,33.6,29.7,30.32,NE,45,0.0,2.0,85,0.00,,,0.00,meteohub,2013-04-21 05:02:00,
2013-04-20 22:07:00,33.4,29.5,30.32,NE,45,0.0,2.0,85,0.00,,,0.00,meteohub,2013-04-21 05:07:00,
2013-04-20 22:12:00,33.3,29.3,30.32,NE,45,0.0,1.0,85,0.00,,,0.00,meteohub,2013-04-21 05:12:00,
2013-04-20 22:17:00,33.3,29.5,30.33,NE,45,0.0,1.0,86,0.00,,,0.00,meteohub,2013-04-21 05:17:00,
2013-04-20 22:22:00,33.3,29.5,30.32,NE,46,1.0,2.0,86,0.00,,,0.00,meteohub,2013-04-21 05:22:00,
2013-04-20 22:27:00,33.1,29.3,30.33,NE,46,1.0,3.0,86,0.00,,,0.00,meteohub,2013-04-21 05:27:00,
2013-04-20 22:32:00,32.9,29.5,30.33,ENE,61,0.0,3.0,87,0.00,,,0.00,meteohub,2013-04-21 05:32:00,
2013-04-20 22:37:00,32.7,29.3,30.33,East,92,3.0,3.0,87,0.00,,,0.00,meteohub,2013-04-21 05:37:00,
2013-04-20 22:42:00,32.7,29.3,30.33,ESE,115,0.0,5.0,87,0.00,,,0.00,meteohub,2013-04-21 05:42:00,
2013-04-20 22:47:00,32.7,29.3,30.33,ESE,115,0.0,5.0,87,0.00,,,0.00,meteohub,2013-04-21 05:47:00,
2013-04-20 22:52:00,32.7,28.9,30.33,ESE,119,3.0,5.0,86,0.00,,,0.00,meteohub,2013-04-21 05:52:00,
2013-04-20 22:57:00,32.4,28.6,30.33,SE,143,2.0,3.0,86,0.00,,,0.00,meteohub,2013-04-21 05:57:00,
2013-04-20 23:02:00,32.4,28.6,30.33,SE,143,3.0,5.0,86,0.00,,,0.00,meteohub,2013-04-21 06:02:00,
2013-04-20 23:07:00,32.2,28.4,30.33,SE,143,0.0,5.0,86,0.00,,,0.00,meteohub,2013-04-21 06:07:00,
2013-04-20 23:12:00,31.8,27.9,30.33,SE,143,0.0,3.0,85,0.00,,,0.00,meteohub,2013-04-21 06:12:00,
2013-04-20 23:17:00,31.6,27.9,30.33,SE,143,0.0,3.0,86,0.00,,,0.00,meteohub,2013-04-21 06:17:00,
2013-04-20 23:22:00,31.5,28.0,30.33,SE,143,0.0,2.0,87,0.00,,,0.00,meteohub,2013-04-21 06:22:00,
2013-04-20 23:27:00,31.3,27.9,30.33,SE,143,0.0,2.0,87,0.00,,,0.00,meteohub,2013-04-21 06:27:00,
2013-04-20 23:32:00,31.3,28.2,30.33,SE,143,0.0,3.0,88,0.00,,,0.00,meteohub,2013-04-21 06:32:00,
2013-04-20 23:37:00,31.3,28.2,30.34,SE,143,0.0,3.0,88,0.00,,,0.00,meteohub,2013-04-21 06:37:00,
2013-04-20 23:42:00,31.5,28.4,30.33,SE,143,1.0,3.0,88,0.00,,,0.00,meteohub,2013-04-21 06:42:00,
2013-04-20 23:47:00,31.5,28.0,30.33,SE,143,2.0,2.0,87,0.00,,,0.00,meteohub,2013-04-21 06:47:00,
2013-04-20 23:52:00,31.3,27.9,30.34,SE,143,0.0,2.0,87,0.00,,,0.00,meteohub,2013-04-21 06:52:00,
2013-04-20 23:57:00,30.9,27.5,30.34,SE,143,0.0,2.0,87,0.00,,,0.00,meteohub,2013-04-21 06:57:00,